sensor_id;sensor_type;location;lat;lon;timestamp;pressure;altitude;pressure_sealevel;temperature;humidity
79584;BME280;69053;57.338;18.700;2023-06-01T00:04:29;101429.50;;;7.59;77.17
79584;BME280;69053;57.338;18.700;2023-06-01T00:09:32;101427.19;;;7.48;77.12
79584;BME280;69053;57.338;18.700;2023-06-01T00:14:32;101426.25;;;7.32;77.26
79584;BME280;69053;57.338;18.700;2023-06-01T00:19:33;101428.53;;;7.21;77.02
79584;BME280;69053;57.338;18.700;2023-06-01T00:24:35;101425.53;;;7.07;77.80
79584;BME280;69053;57.338;18.700;2023-06-01T00:29:35;101418.63;;;6.97;77.58
79584;BME280;69053;57.338;18.700;2023-06-01T00:34:36;101426.94;;;6.87;77.81
79584;BME280;69053;57.338;18.700;2023-06-01T00:39:36;101415.47;;;6.76;78.18
79584;BME280;69053;57.338;18.700;2023-06-01T00:44:39;101417.88;;;6.63;77.75
79584;BME280;69053;57.338;18.700;2023-06-01T00:49:39;101412.16;;;6.50;77.61
79584;BME280;69053;57.338;18.700;2023-06-01T00:54:40;101414.72;;;6.35;78.24
79584;BME280;69053;57.338;18.700;2023-06-01T00:59:41;101416.44;;;6.28;78.07
79584;BME280;69053;57.338;18.700;2023-06-01T01:04:41;101412.00;;;6.18;78.64
79584;BME280;69053;57.338;18.700;2023-06-01T01:15:12;101393.78;;;6.04;78.03
79584;BME280;69053;57.338;18.700;2023-06-01T01:20:31;101398.66;;;5.92;78.22
79584;BME280;69053;57.338;18.700;2023-06-01T01:30:59;101394.91;;;5.77;78.16
79584;BME280;69053;57.338;18.700;2023-06-01T01:36:02;101386.78;;;5.69;78.05
79584;BME280;69053;57.338;18.700;2023-06-01T01:41:04;101385.78;;;5.61;78.15
79584;BME280;69053;57.338;18.700;2023-06-01T01:46:24;101381.06;;;5.55;78.78
79584;BME280;69053;57.338;18.700;2023-06-01T01:56:57;101399.44;;;5.52;78.99
79584;BME280;69053;57.338;18.700;2023-06-01T02:01:59;101402.13;;;5.52;79.70
79584;BME280;69053;57.338;18.700;2023-06-01T02:07:00;101407.53;;;5.52;79.31
79584;BME280;69053;57.338;18.700;2023-06-01T02:12:00;101401.47;;;5.50;79.27
79584;BME280;69053;57.338;18.700;2023-06-01T02:17:02;101404.50;;;5.47;79.61
79584;BME280;69053;57.338;18.700;2023-06-01T02:22:03;101411.09;;;5.44;79.94
79584;BME280;69053;57.338;18.700;2023-06-01T02:27:03;101407.75;;;5.50;79.90
79584;BME280;69053;57.338;18.700;2023-06-01T02:32:04;101413.13;;;5.58;79.39
79584;BME280;69053;57.338;18.700;2023-06-01T02:37:05;101405.56;;;5.70;79.92
79584;BME280;69053;57.338;18.700;2023-06-01T02:42:06;101420.09;;;5.86;80.06
79584;BME280;69053;57.338;18.700;2023-06-01T02:47:08;101429.94;;;6.03;80.73
79584;BME280;69053;57.338;18.700;2023-06-01T02:52:10;101417.75;;;6.24;81.40
79584;BME280;69053;57.338;18.700;2023-06-01T02:57:10;101416.22;;;6.37;81.99
79584;BME280;69053;57.338;18.700;2023-06-01T03:02:11;101407.75;;;6.49;81.77
79584;BME280;69053;57.338;18.700;2023-06-01T03:07:11;101417.72;;;6.56;81.10
79584;BME280;69053;57.338;18.700;2023-06-01T03:12:13;101394.16;;;6.65;81.50
79584;BME280;69053;57.338;18.700;2023-06-01T03:17:13;101396.19;;;6.71;81.04
79584;BME280;69053;57.338;18.700;2023-06-01T03:22:14;101410.88;;;6.77;81.20
79584;BME280;69053;57.338;18.700;2023-06-01T03:27:18;101412.41;;;6.88;80.83
79584;BME280;69053;57.338;18.700;2023-06-01T03:32:20;101408.28;;;7.00;80.78
79584;BME280;69053;57.338;18.700;2023-06-01T03:37:20;101407.38;;;7.16;80.52
79584;BME280;69053;57.338;18.700;2023-06-01T03:42:21;101412.53;;;7.34;80.61
79584;BME280;69053;57.338;18.700;2023-06-01T03:47:21;101407.66;;;7.53;80.60
79584;BME280;69053;57.338;18.700;2023-06-01T03:52:22;101403.47;;;7.73;80.12
79584;BME280;69053;57.338;18.700;2023-06-01T03:57:22;101409.06;;;7.95;80.16
79584;BME280;69053;57.338;18.700;2023-06-01T04:02:23;101398.19;;;8.18;80.15
79584;BME280;69053;57.338;18.700;2023-06-01T04:07:24;101391.53;;;8.43;80.26
79584;BME280;69053;57.338;18.700;2023-06-01T04:12:25;101392.13;;;8.69;80.35
79584;BME280;69053;57.338;18.700;2023-06-01T04:17:26;101398.31;;;8.92;79.95
79584;BME280;69053;57.338;18.700;2023-06-01T04:22:26;101401.91;;;9.14;79.67
79584;BME280;69053;57.338;18.700;2023-06-01T04:27:27;101398.78;;;9.32;79.20
79584;BME280;69053;57.338;18.700;2023-06-01T04:32:28;101389.38;;;9.50;79.05
79584;BME280;69053;57.338;18.700;2023-06-01T04:47:49;101387.03;;;9.90;78.96
79584;BME280;69053;57.338;18.700;2023-06-01T04:52:50;101380.06;;;10.02;78.80
79584;BME280;69053;57.338;18.700;2023-06-01T04:57:52;101379.31;;;10.15;78.49
79584;BME280;69053;57.338;18.700;2023-06-01T05:02:53;101392.59;;;10.25;78.43
79584;BME280;69053;57.338;18.700;2023-06-01T05:07:55;101388.63;;;10.27;79.22
79584;BME280;69053;57.338;18.700;2023-06-01T05:12:56;101380.25;;;10.29;79.04
79584;BME280;69053;57.338;18.700;2023-06-01T05:17:57;101378.44;;;10.36;79.43
79584;BME280;69053;57.338;18.700;2023-06-01T05:22:57;101391.88;;;10.38;79.56
79584;BME280;69053;57.338;18.700;2023-06-01T05:27:58;101396.47;;;10.37;79.71
79584;BME280;69053;57.338;18.700;2023-06-01T05:32:58;101400.72;;;10.46;79.51
79584;BME280;69053;57.338;18.700;2023-06-01T05:37:59;101403.31;;;10.55;79.84
79584;BME280;69053;57.338;18.700;2023-06-01T05:43:00;101382.63;;;10.67;79.67
79584;BME280;69053;57.338;18.700;2023-06-01T05:48:00;101397.66;;;10.91;78.75
79584;BME280;69053;57.338;18.700;2023-06-01T05:53:01;101390.03;;;11.21;78.12
79584;BME280;69053;57.338;18.700;2023-06-01T05:58:02;101387.38;;;11.48;77.44
79584;BME280;69053;57.338;18.700;2023-06-01T06:03:03;101395.47;;;11.83;76.62
79584;BME280;69053;57.338;18.700;2023-06-01T06:08:04;101387.50;;;12.15;76.05
79584;BME280;69053;57.338;18.700;2023-06-01T06:13:05;101383.72;;;12.49;75.00
79584;BME280;69053;57.338;18.700;2023-06-01T06:18:05;101388.94;;;12.78;74.24
79584;BME280;69053;57.338;18.700;2023-06-01T06:23:06;101384.88;;;12.93;74.42
79584;BME280;69053;57.338;18.700;2023-06-01T06:28:07;101391.50;;;13.18;73.38
79584;BME280;69053;57.338;18.700;2023-06-01T06:33:08;101392.09;;;13.26;73.06
79584;BME280;69053;57.338;18.700;2023-06-01T06:38:11;101400.94;;;13.28;72.72
79584;BME280;69053;57.338;18.700;2023-06-01T06:43:12;101402.19;;;13.39;72.50
79584;BME280;69053;57.338;18.700;2023-06-01T06:48:13;101403.25;;;13.38;72.22
79584;BME280;69053;57.338;18.700;2023-06-01T06:53:14;101408.09;;;13.36;72.44
79584;BME280;69053;57.338;18.700;2023-06-01T06:58:14;101404.94;;;13.39;72.06
79584;BME280;69053;57.338;18.700;2023-06-01T07:03:16;101411.59;;;13.50;71.75
79584;BME280;69053;57.338;18.700;2023-06-01T07:08:17;101410.88;;;13.68;70.31
79584;BME280;69053;57.338;18.700;2023-06-01T07:13:18;101400.47;;;13.77;69.42
79584;BME280;69053;57.338;18.700;2023-06-01T07:18:18;101400.56;;;13.95;69.55
79584;BME280;69053;57.338;18.700;2023-06-01T07:23:19;101400.72;;;14.32;68.73
79584;BME280;69053;57.338;18.700;2023-06-01T07:28:20;101396.94;;;14.52;67.05
79584;BME280;69053;57.338;18.700;2023-06-01T07:33:25;101412.59;;;14.70;65.45
79584;BME280;69053;57.338;18.700;2023-06-01T07:38:26;101414.22;;;14.77;64.84
79584;BME280;69053;57.338;18.700;2023-06-01T07:43:27;101413.25;;;14.72;62.46
79584;BME280;69053;57.338;18.700;2023-06-01T07:48:27;101416.75;;;14.54;62.50
79584;BME280;69053;57.338;18.700;2023-06-01T07:53:28;101414.97;;;14.66;62.30
79584;BME280;69053;57.338;18.700;2023-06-01T07:58:29;101424.53;;;14.82;60.46
79584;BME280;69053;57.338;18.700;2023-06-01T08:03:29;101423.47;;;15.02;59.67
79584;BME280;69053;57.338;18.700;2023-06-01T08:08:33;101435.56;;;15.12;60.94
79584;BME280;69053;57.338;18.700;2023-06-01T08:13:34;101447.59;;;15.30;60.05
79584;BME280;69053;57.338;18.700;2023-06-01T08:18:38;101450.72;;;14.78;59.80
79584;BME280;69053;57.338;18.700;2023-06-01T08:23:38;101446.84;;;14.86;58.61
79584;BME280;69053;57.338;18.700;2023-06-01T08:28:39;101468.44;;;14.50;58.23
79584;BME280;69053;57.338;18.700;2023-06-01T08:33:40;101467.31;;;14.33;57.97
79584;BME280;69053;57.338;18.700;2023-06-01T08:38:40;101470.44;;;14.36;57.69
79584;BME280;69053;57.338;18.700;2023-06-01T08:43:43;101480.50;;;14.74;56.50
79584;BME280;69053;57.338;18.700;2023-06-01T08:48:54;101475.53;;;15.08;55.91
79584;BME280;69053;57.338;18.700;2023-06-01T08:53:57;101486.44;;;15.15;54.69
79584;BME280;69053;57.338;18.700;2023-06-01T08:58:59;101494.75;;;14.83;55.87
79584;BME280;69053;57.338;18.700;2023-06-01T09:04:00;101491.66;;;14.98;54.98
79584;BME280;69053;57.338;18.700;2023-06-01T09:09:01;101510.47;;;14.44;54.06
79584;BME280;69053;57.338;18.700;2023-06-01T09:14:01;101507.69;;;14.19;55.13
79584;BME280;69053;57.338;18.700;2023-06-01T09:19:03;101522.31;;;14.38;53.71
79584;BME280;69053;57.338;18.700;2023-06-01T09:24:20;101518.66;;;14.19;54.12
79584;BME280;69053;57.338;18.700;2023-06-01T09:29:22;101522.72;;;13.58;54.52
79584;BME280;69053;57.338;18.700;2023-06-01T09:34:22;101538.41;;;12.97;56.63
79584;BME280;69053;57.338;18.700;2023-06-01T09:39:24;101544.53;;;12.59;57.60
79584;BME280;69053;57.338;18.700;2023-06-01T09:44:30;101559.00;;;12.53;56.76
79584;BME280;69053;57.338;18.700;2023-06-01T09:49:41;101576.50;;;12.65;55.44
79584;BME280;69053;57.338;18.700;2023-06-01T09:59:47;101570.81;;;12.60;53.51
79584;BME280;69053;57.338;18.700;2023-06-01T10:04:52;101579.09;;;12.12;53.59
79584;BME280;69053;57.338;18.700;2023-06-01T10:09:55;101593.47;;;11.86;54.87
79584;BME280;69053;57.338;18.700;2023-06-01T10:14:58;101589.72;;;11.52;56.03
79584;BME280;69053;57.338;18.700;2023-06-01T10:20:01;101592.25;;;11.53;51.85
79584;BME280;69053;57.338;18.700;2023-06-01T10:25:02;101590.97;;;11.14;54.18
79584;BME280;69053;57.338;18.700;2023-06-01T10:30:03;101603.41;;;11.02;56.64
79584;BME280;69053;57.338;18.700;2023-06-01T10:35:05;101599.19;;;10.71;57.36
79584;BME280;69053;57.338;18.700;2023-06-01T10:50:35;101610.13;;;11.27;55.42
79584;BME280;69053;57.338;18.700;2023-06-01T10:55:36;101605.69;;;11.55;55.79
79584;BME280;69053;57.338;18.700;2023-06-01T11:00:40;101599.25;;;11.62;55.53
79584;BME280;69053;57.338;18.700;2023-06-01T11:05:47;101606.06;;;11.45;55.46
79584;BME280;69053;57.338;18.700;2023-06-01T11:21:05;101631.16;;;11.97;53.13
79584;BME280;69053;57.338;18.700;2023-06-01T11:26:07;101624.72;;;12.18;54.34
79584;BME280;69053;57.338;18.700;2023-06-01T11:31:09;101645.97;;;12.23;51.85
79584;BME280;69053;57.338;18.700;2023-06-01T11:36:10;101648.78;;;11.94;51.39
79584;BME280;69053;57.338;18.700;2023-06-01T11:41:15;101653.31;;;11.87;52.89
79584;BME280;69053;57.338;18.700;2023-06-01T11:46:15;101668.69;;;11.60;53.87
79584;BME280;69053;57.338;18.700;2023-06-01T11:51:16;101674.50;;;11.22;53.74
79584;BME280;69053;57.338;18.700;2023-06-01T11:56:17;101676.47;;;11.06;54.25
79584;BME280;69053;57.338;18.700;2023-06-01T12:01:18;101680.56;;;10.96;51.77
79584;BME280;69053;57.338;18.700;2023-06-01T12:06:23;101678.72;;;10.60;52.49
79584;BME280;69053;57.338;18.700;2023-06-01T12:11:27;101688.69;;;10.53;53.39
79584;BME280;69053;57.338;18.700;2023-06-01T12:16:53;101687.88;;;10.22;53.04
79584;BME280;69053;57.338;18.700;2023-06-01T12:21:56;101684.78;;;10.10;53.89
79584;BME280;69053;57.338;18.700;2023-06-01T12:26:57;101675.31;;;10.06;53.55
79584;BME280;69053;57.338;18.700;2023-06-01T12:31:58;101685.38;;;9.91;54.07
79584;BME280;69053;57.338;18.700;2023-06-01T12:37:09;101698.69;;;9.56;56.39
79584;BME280;69053;57.338;18.700;2023-06-01T12:42:10;101702.50;;;9.47;57.20
79584;BME280;69053;57.338;18.700;2023-06-01T12:47:11;101707.28;;;9.45;56.88
79584;BME280;69053;57.338;18.700;2023-06-01T12:52:12;101722.75;;;9.59;56.44
79584;BME280;69053;57.338;18.700;2023-06-01T12:57:13;101711.69;;;9.61;56.03
79584;BME280;69053;57.338;18.700;2023-06-01T13:02:14;101726.66;;;9.80;55.76
79584;BME280;69053;57.338;18.700;2023-06-01T13:07:15;101728.63;;;9.86;55.54
79584;BME280;69053;57.338;18.700;2023-06-01T13:12:15;101733.81;;;9.95;54.94
79584;BME280;69053;57.338;18.700;2023-06-01T13:17:16;101724.50;;;10.05;54.46
79584;BME280;69053;57.338;18.700;2023-06-01T13:22:17;101730.41;;;10.08;53.39
79584;BME280;69053;57.338;18.700;2023-06-01T13:27:17;101738.38;;;9.95;53.26
79584;BME280;69053;57.338;18.700;2023-06-01T13:32:18;101744.31;;;9.99;53.15
79584;BME280;69053;57.338;18.700;2023-06-01T13:37:18;101751.38;;;10.08;52.31
79584;BME280;69053;57.338;18.700;2023-06-01T13:42:19;101744.03;;;10.23;51.20
79584;BME280;69053;57.338;18.700;2023-06-01T13:47:20;101760.19;;;10.10;51.46
79584;BME280;69053;57.338;18.700;2023-06-01T13:52:21;101757.28;;;10.11;51.37
79584;BME280;69053;57.338;18.700;2023-06-01T13:57:22;101760.94;;;9.89;52.38
79584;BME280;69053;57.338;18.700;2023-06-01T14:02:22;101761.34;;;9.63;52.38
79584;BME280;69053;57.338;18.700;2023-06-01T14:07:23;101764.06;;;9.63;53.08
79584;BME280;69053;57.338;18.700;2023-06-01T14:12:23;101773.78;;;9.80;51.85
79584;BME280;69053;57.338;18.700;2023-06-01T14:17:24;101765.59;;;9.95;51.60
79584;BME280;69053;57.338;18.700;2023-06-01T14:22:25;101777.34;;;10.10;52.10
79584;BME280;69053;57.338;18.700;2023-06-01T14:27:26;101766.09;;;10.13;51.16
79584;BME280;69053;57.338;18.700;2023-06-01T14:32:26;101779.34;;;10.17;51.49
79584;BME280;69053;57.338;18.700;2023-06-01T14:37:27;101780.47;;;10.22;51.12
79584;BME280;69053;57.338;18.700;2023-06-01T14:42:28;101778.84;;;10.28;50.39
79584;BME280;69053;57.338;18.700;2023-06-01T14:47:28;101784.88;;;10.38;50.53
79584;BME280;69053;57.338;18.700;2023-06-01T14:52:29;101785.66;;;10.32;49.45
79584;BME280;69053;57.338;18.700;2023-06-01T14:57:30;101790.59;;;10.13;48.82
79584;BME280;69053;57.338;18.700;2023-06-01T15:02:32;101793.50;;;9.97;50.02
79584;BME280;69053;57.338;18.700;2023-06-01T15:07:33;101787.19;;;9.97;51.28
79584;BME280;69053;57.338;18.700;2023-06-01T15:12:36;101802.69;;;9.96;51.31
79584;BME280;69053;57.338;18.700;2023-06-01T15:17:37;101797.97;;;9.90;51.88
79584;BME280;69053;57.338;18.700;2023-06-01T15:22:37;101803.53;;;9.82;52.03
79584;BME280;69053;57.338;18.700;2023-06-01T15:27:38;101805.94;;;9.76;52.39
79584;BME280;69053;57.338;18.700;2023-06-01T15:32:39;101803.69;;;9.80;52.62
79584;BME280;69053;57.338;18.700;2023-06-01T15:37:41;101787.63;;;9.70;51.76
79584;BME280;69053;57.338;18.700;2023-06-01T15:42:41;101796.75;;;9.77;50.77
79584;BME280;69053;57.338;18.700;2023-06-01T15:47:42;101790.69;;;9.90;50.66
79584;BME280;69053;57.338;18.700;2023-06-01T15:52:45;101790.31;;;10.08;50.62
79584;BME280;69053;57.338;18.700;2023-06-01T15:57:46;101784.81;;;10.31;49.44
79584;BME280;69053;57.338;18.700;2023-06-01T16:02:47;101778.97;;;10.64;47.78
79584;BME280;69053;57.338;18.700;2023-06-01T16:07:47;101791.97;;;10.84;48.05
79584;BME280;69053;57.338;18.700;2023-06-01T16:12:48;101801.50;;;10.73;48.01
79584;BME280;69053;57.338;18.700;2023-06-01T16:17:48;101791.44;;;10.59;48.48
79584;BME280;69053;57.338;18.700;2023-06-01T16:22:49;101786.59;;;10.39;49.21
79584;BME280;69053;57.338;18.700;2023-06-01T16:58:16;101788.34;;;9.64;49.54
79584;BME280;69053;57.338;18.700;2023-06-01T17:03:16;101788.34;;;9.64;49.94
79584;BME280;69053;57.338;18.700;2023-06-01T17:08:17;101799.28;;;9.79;48.69
79584;BME280;69053;57.338;18.700;2023-06-01T17:13:19;101797.25;;;9.96;48.94
79584;BME280;69053;57.338;18.700;2023-06-01T17:18:20;101784.50;;;10.11;48.49
79584;BME280;69053;57.338;18.700;2023-06-01T17:23:21;101799.34;;;10.24;48.44
79584;BME280;69053;57.338;18.700;2023-06-01T17:28:21;101787.16;;;10.49;47.06
79584;BME280;69053;57.338;18.700;2023-06-01T17:33:22;101788.06;;;10.57;46.91
79584;BME280;69053;57.338;18.700;2023-06-01T17:38:22;101784.00;;;10.23;47.12
79584;BME280;69053;57.338;18.700;2023-06-01T17:43:22;101790.38;;;9.85;48.29
79584;BME280;69053;57.338;18.700;2023-06-01T17:48:23;101794.53;;;9.58;48.41
79584;BME280;69053;57.338;18.700;2023-06-01T17:53:23;101800.09;;;9.42;48.83
79584;BME280;69053;57.338;18.700;2023-06-01T17:58:24;101811.59;;;9.29;49.84
79584;BME280;69053;57.338;18.700;2023-06-01T18:03:25;101809.16;;;9.11;50.02
79584;BME280;69053;57.338;18.700;2023-06-01T18:08:25;101807.06;;;8.90;50.07
79584;BME280;69053;57.338;18.700;2023-06-01T18:13:26;101811.56;;;8.74;50.82
79584;BME280;69053;57.338;18.700;2023-06-01T18:18:26;101819.59;;;8.59;51.44
79584;BME280;69053;57.338;18.700;2023-06-01T18:23:27;101813.72;;;8.48;51.88
79584;BME280;69053;57.338;18.700;2023-06-01T18:28:28;101813.22;;;8.36;52.59
79584;BME280;69053;57.338;18.700;2023-06-01T18:33:29;101818.69;;;8.19;52.81
79584;BME280;69053;57.338;18.700;2023-06-01T18:38:29;101818.53;;;8.04;53.41
79584;BME280;69053;57.338;18.700;2023-06-01T18:43:36;101812.66;;;7.84;54.06
79584;BME280;69053;57.338;18.700;2023-06-01T18:48:37;101821.81;;;7.67;54.39
79584;BME280;69053;57.338;18.700;2023-06-01T18:53:37;101817.22;;;7.51;55.08
79584;BME280;69053;57.338;18.700;2023-06-01T18:58:46;101815.69;;;7.32;55.51
79584;BME280;69053;57.338;18.700;2023-06-01T19:03:48;101822.41;;;7.11;56.15
79584;BME280;69053;57.338;18.700;2023-06-01T19:08:50;101823.88;;;6.81;56.75
79584;BME280;69053;57.338;18.700;2023-06-01T19:13:51;101830.53;;;6.52;57.64
79584;BME280;69053;57.338;18.700;2023-06-01T19:18:56;101847.47;;;6.28;58.31
79584;BME280;69053;57.338;18.700;2023-06-01T19:24:08;101850.09;;;5.94;59.04
79584;BME280;69053;57.338;18.700;2023-06-01T19:29:17;101849.00;;;5.60;59.71
79584;BME280;69053;57.338;18.700;2023-06-01T19:34:17;101852.09;;;5.30;60.86
79584;BME280;69053;57.338;18.700;2023-06-01T19:39:32;101852.81;;;5.04;61.29
79584;BME280;69053;57.338;18.700;2023-06-01T19:44:33;101857.31;;;4.85;61.77
79584;BME280;69053;57.338;18.700;2023-06-01T19:49:40;101858.56;;;4.63;62.51
79584;BME280;69053;57.338;18.700;2023-06-01T19:54:41;101857.38;;;4.38;63.12
79584;BME280;69053;57.338;18.700;2023-06-01T19:59:42;101863.16;;;4.06;63.67
79584;BME280;69053;57.338;18.700;2023-06-01T20:04:42;101859.50;;;3.78;64.81
79584;BME280;69053;57.338;18.700;2023-06-01T20:09:45;101859.25;;;3.61;65.05
79584;BME280;69053;57.338;18.700;2023-06-01T20:14:49;101868.59;;;3.37;65.95
79584;BME280;69053;57.338;18.700;2023-06-01T20:19:49;101860.34;;;3.10;66.91
79584;BME280;69053;57.338;18.700;2023-06-01T20:24:50;101867.91;;;2.85;68.01
79584;BME280;69053;57.338;18.700;2023-06-01T20:29:50;101868.25;;;2.61;68.54
79584;BME280;69053;57.338;18.700;2023-06-01T20:34:51;101873.44;;;2.43;68.81
79584;BME280;69053;57.338;18.700;2023-06-01T20:39:51;101881.53;;;2.22;69.86
79584;BME280;69053;57.338;18.700;2023-06-01T20:44:52;101888.47;;;2.03;70.62
79584;BME280;69053;57.338;18.700;2023-06-01T20:49:52;101880.44;;;1.82;71.57
79584;BME280;69053;57.338;18.700;2023-06-01T20:54:53;101881.72;;;1.67;71.91
79584;BME280;69053;57.338;18.700;2023-06-01T20:59:53;101876.88;;;1.49;72.06
79584;BME280;69053;57.338;18.700;2023-06-01T21:04:54;101875.22;;;1.37;72.37
79584;BME280;69053;57.338;18.700;2023-06-01T21:09:54;101877.31;;;1.34;72.29
79584;BME280;69053;57.338;18.700;2023-06-01T21:14:55;101874.28;;;1.27;72.02
79584;BME280;69053;57.338;18.700;2023-06-01T21:19:56;101875.06;;;1.18;73.02
79584;BME280;69053;57.338;18.700;2023-06-01T21:24:56;101865.69;;;1.12;72.59
79584;BME280;69053;57.338;18.700;2023-06-01T21:29:57;101875.19;;;1.05;72.51
79584;BME280;69053;57.338;18.700;2023-06-01T21:34:58;101881.69;;;1.02;72.93
79584;BME280;69053;57.338;18.700;2023-06-01T21:39:58;101878.16;;;1.02;72.66
79584;BME280;69053;57.338;18.700;2023-06-01T21:44:59;101879.59;;;0.94;73.04
79584;BME280;69053;57.338;18.700;2023-06-01T21:49:59;101875.84;;;0.86;73.02
79584;BME280;69053;57.338;18.700;2023-06-01T21:55:00;101869.88;;;0.82;73.35
79584;BME280;69053;57.338;18.700;2023-06-01T22:00:02;101870.97;;;0.80;73.02
79584;BME280;69053;57.338;18.700;2023-06-01T22:05:05;101864.53;;;0.71;73.03
79584;BME280;69053;57.338;18.700;2023-06-01T22:10:07;101870.50;;;0.63;72.79
79584;BME280;69053;57.338;18.700;2023-06-01T22:15:08;101862.47;;;0.52;73.39
79584;BME280;69053;57.338;18.700;2023-06-01T22:20:10;101861.38;;;0.43;73.32
79584;BME280;69053;57.338;18.700;2023-06-01T22:25:10;101871.97;;;0.33;73.74
79584;BME280;69053;57.338;18.700;2023-06-01T22:30:11;101870.22;;;0.10;75.01
79584;BME280;69053;57.338;18.700;2023-06-01T22:35:12;101868.97;;;-0.09;75.20
79584;BME280;69053;57.338;18.700;2023-06-01T22:40:12;101876.16;;;-0.21;75.53
79584;BME280;69053;57.338;18.700;2023-06-01T22:45:13;101872.09;;;-0.26;75.65
79584;BME280;69053;57.338;18.700;2023-06-01T22:50:14;101871.06;;;-0.36;75.74
79584;BME280;69053;57.338;18.700;2023-06-01T22:55:18;101872.19;;;-0.39;75.84
79584;BME280;69053;57.338;18.700;2023-06-01T23:00:19;101866.81;;;-0.39;75.71
79584;BME280;69053;57.338;18.700;2023-06-01T23:05:19;101868.38;;;-0.48;76.35
79584;BME280;69053;57.338;18.700;2023-06-01T23:10:21;101866.44;;;-0.46;75.31
79584;BME280;69053;57.338;18.700;2023-06-01T23:15:21;101859.72;;;-0.51;76.06
79584;BME280;69053;57.338;18.700;2023-06-01T23:20:24;101862.63;;;-0.54;75.77
79584;BME280;69053;57.338;18.700;2023-06-01T23:25:24;101873.78;;;-0.61;76.06
79584;BME280;69053;57.338;18.700;2023-06-01T23:30:25;101872.13;;;-0.74;76.81
79584;BME280;69053;57.338;18.700;2023-06-01T23:35:26;101872.13;;;-0.74;76.68
79584;BME280;69053;57.338;18.700;2023-06-01T23:40:27;101870.44;;;-0.76;76.27
79584;BME280;69053;57.338;18.700;2023-06-01T23:45:28;101875.66;;;-0.74;76.00
79584;BME280;69053;57.338;18.700;2023-06-01T23:50:28;101870.44;;;-0.76;76.32
79584;BME280;69053;57.338;18.700;2023-06-01T23:55:29;101866.28;;;-0.80;76.67
